createdAt,value
2022-08-03T00:01:29.223Z,21.82
2022-08-03T00:03:56.890Z,21.83
2022-08-03T00:06:25.863Z,21.83
2022-08-03T00:08:53.528Z,21.80
2022-08-03T00:11:21.881Z,21.77
2022-08-03T00:13:49.542Z,21.76
2022-08-03T00:16:17.127Z,21.75
2022-08-03T00:18:44.814Z,21.76
2022-08-03T00:21:12.544Z,21.74
2022-08-03T00:23:52.184Z,21.75
2022-08-03T00:26:20.406Z,21.72
2022-08-03T00:28:47.922Z,21.67
2022-08-03T00:31:15.560Z,21.66
2022-08-03T00:33:59.554Z,21.66
2022-08-03T00:36:30.847Z,21.68
2022-08-03T00:38:59.797Z,21.67
2022-08-03T00:41:27.302Z,21.71
2022-08-03T00:43:54.876Z,21.72
2022-08-03T00:46:22.770Z,21.73
2022-08-03T00:48:50.500Z,21.69
2022-08-03T00:51:18.937Z,21.69
2022-08-03T00:53:46.531Z,21.72
2022-08-03T00:56:16.650Z,21.72
2022-08-03T00:58:46.151Z,21.68
2022-08-03T01:01:14.335Z,21.63
2022-08-03T01:03:42.484Z,21.55
2022-08-03T01:06:17.917Z,21.46
2022-08-03T01:08:49.446Z,21.43
2022-08-03T01:11:28.244Z,21.36
2022-08-03T01:14:18.241Z,21.37
2022-08-03T01:16:56.769Z,21.36
2022-08-03T01:19:46.444Z,21.30
2022-08-03T01:22:45.340Z,21.22
2022-08-03T01:25:25.682Z,21.19
2022-08-03T01:28:04.270Z,21.15
2022-08-03T01:30:36.037Z,21.14
2022-08-03T01:33:07.240Z,21.16
2022-08-03T01:35:39.968Z,21.20
2022-08-03T01:38:13.271Z,21.25
2022-08-03T01:40:42.324Z,21.25
2022-08-03T01:43:13.627Z,21.21
2022-08-03T01:45:44.860Z,21.17
2022-08-03T01:48:13.910Z,21.14
2022-08-03T01:50:41.890Z,21.11
2022-08-03T01:53:10.383Z,21.06
2022-08-03T01:55:40.030Z,21.05
2022-08-03T01:58:09.007Z,21.04
2022-08-03T02:00:38.517Z,21.01
2022-08-03T02:03:08.614Z,20.97
2022-08-03T02:05:38.893Z,20.97
2022-08-03T02:08:08.785Z,21.00
2022-08-03T02:10:37.575Z,21.00
2022-08-03T02:13:08.246Z,20.99
2022-08-03T02:15:37.979Z,21.04
2022-08-03T02:18:09.857Z,21.04
2022-08-03T02:20:39.704Z,20.98
2022-08-03T02:23:07.825Z,20.92
2022-08-03T02:25:39.709Z,20.87
2022-08-03T02:28:11.577Z,20.82
2022-08-03T02:30:42.007Z,20.81
2022-08-03T02:33:28.199Z,20.78
2022-08-03T02:35:58.153Z,20.76
2022-08-03T02:38:32.082Z,20.72
2022-08-03T02:41:01.225Z,20.67
2022-08-03T02:43:39.210Z,20.61
2022-08-03T02:46:21.437Z,20.57
2022-08-03T02:48:54.619Z,20.53
2022-08-03T02:51:23.372Z,20.49
2022-08-03T02:53:52.133Z,20.48
2022-08-03T02:56:20.615Z,20.53
2022-08-03T02:58:49.863Z,20.61
2022-08-03T03:01:20.346Z,20.68
2022-08-03T03:03:49.116Z,20.70
2022-08-03T03:06:19.506Z,20.71
2022-08-03T03:08:48.613Z,20.69
2022-08-03T03:11:19.055Z,20.67
2022-08-03T03:13:48.066Z,20.65
2022-08-03T03:16:17.051Z,20.69
2022-08-03T03:18:46.174Z,20.71
2022-08-03T03:21:15.332Z,20.73
2022-08-03T03:23:47.698Z,20.77
2022-08-03T03:26:16.576Z,20.78
2022-08-03T03:28:44.826Z,20.76
2022-08-03T03:31:12.621Z,20.74
2022-08-03T03:33:40.457Z,20.69
2022-08-03T03:36:08.577Z,20.65
2022-08-03T03:38:36.193Z,20.63
2022-08-03T03:41:05.940Z,20.63
2022-08-03T03:43:33.779Z,20.61
2022-08-03T03:46:02.108Z,20.58
2022-08-03T03:48:29.997Z,20.51
2022-08-03T03:51:00.184Z,20.48
2022-08-03T03:53:28.017Z,20.43
2022-08-03T03:55:59.155Z,20.37
2022-08-03T03:58:32.242Z,20.34
2022-08-03T04:01:00.081Z,20.34
2022-08-03T04:03:27.983Z,20.38
2022-08-03T04:06:13.029Z,20.41
2022-08-03T04:09:13.370Z,20.43
2022-08-03T04:11:44.538Z,20.40
2022-08-03T04:14:17.426Z,20.33
2022-08-03T04:16:48.112Z,20.29
2022-08-03T04:19:23.269Z,20.27
2022-08-03T04:21:57.129Z,20.31
2022-08-03T04:24:28.006Z,20.34
2022-08-03T04:26:58.394Z,20.39
2022-08-03T04:29:29.455Z,20.43
2022-08-03T04:31:58.810Z,20.42
2022-08-03T04:34:26.408Z,20.40
2022-08-03T04:36:58.906Z,20.40
2022-08-03T04:39:28.701Z,20.38
2022-08-03T04:42:02.289Z,20.34
2022-08-03T04:44:38.579Z,20.33
2022-08-03T04:47:06.228Z,20.32
2022-08-03T04:49:34.326Z,20.31
2022-08-03T04:52:02.467Z,20.29
2022-08-03T04:54:30.053Z,20.26
2022-08-03T04:56:57.622Z,20.26
2022-08-03T04:59:25.145Z,20.26
2022-08-03T05:01:54.043Z,20.28
2022-08-03T05:04:21.714Z,20.29
2022-08-03T05:06:54.839Z,20.32
2022-08-03T05:09:45.077Z,20.36
2022-08-03T05:12:10.440Z,20.38
2022-08-03T05:14:39.192Z,20.36
2022-08-03T05:17:09.325Z,20.35
2022-08-03T05:19:36.946Z,20.34
2022-08-03T05:22:04.498Z,20.36
2022-08-03T05:24:32.017Z,20.37
2022-08-03T05:26:59.554Z,20.38
2022-08-03T05:29:27.047Z,20.44
2022-08-03T05:31:54.576Z,20.50
2022-08-03T05:34:23.459Z,20.56
2022-08-03T05:36:51.003Z,20.61
2022-08-03T05:39:18.506Z,20.65
2022-08-03T05:41:46.176Z,20.71
2022-08-03T05:44:13.701Z,20.76
2022-08-03T05:46:41.231Z,20.83
2022-08-03T05:49:08.758Z,20.89
2022-08-03T05:51:38.092Z,20.93
2022-08-03T05:54:05.648Z,20.96
2022-08-03T05:56:33.322Z,21.03
2022-08-03T05:59:11.550Z,21.07
2022-08-03T06:01:48.742Z,21.12
2022-08-03T06:04:16.360Z,21.16
2022-08-03T06:06:45.359Z,21.20
2022-08-03T06:09:13.185Z,21.25
2022-08-03T06:11:42.080Z,21.31
2022-08-03T06:14:09.847Z,21.35
2022-08-03T06:16:37.370Z,21.43
2022-08-03T06:19:04.883Z,21.46
2022-08-03T06:21:32.470Z,21.51
2022-08-03T06:24:01.290Z,21.55
2022-08-03T06:26:30.143Z,21.61
2022-08-03T06:28:57.693Z,21.66
2022-08-03T06:31:33.359Z,21.71
2022-08-03T06:34:33.153Z,21.76
2022-08-03T06:36:51.190Z,21.82
2022-08-03T06:39:23.526Z,21.88
2022-08-03T06:45:06.673Z,22.00
2022-08-03T06:47:35.221Z,22.05
2022-08-03T06:50:14.193Z,22.11
2022-08-03T06:52:46.092Z,22.17
2022-08-03T06:55:19.830Z,22.23
2022-08-03T06:57:59.854Z,22.30
2022-08-03T07:00:44.476Z,22.36
2022-08-03T07:03:15.686Z,22.46
2022-08-03T07:05:55.394Z,22.54
2022-08-03T07:08:34.252Z,22.61
2022-08-03T07:11:16.092Z,22.71
2022-08-03T09:09:02.790Z,27.21
2022-08-03T09:11:51.618Z,27.28
2022-08-03T09:14:33.662Z,27.37
2022-08-03T09:17:05.224Z,27.46
2022-08-03T09:19:34.720Z,27.57
2022-08-03T09:25:48.647Z,27.77
2022-08-03T09:28:53.860Z,27.84
2022-08-03T09:31:05.219Z,27.93
2022-08-03T09:33:36.249Z,28.02
2022-08-03T09:36:03.994Z,28.12
2022-08-03T09:38:31.595Z,28.21
2022-08-03T09:41:01.123Z,28.28
2022-08-03T09:43:29.363Z,28.36
2022-08-03T09:46:05.130Z,28.45
2022-08-03T09:48:34.954Z,28.52
2022-08-03T09:51:13.438Z,28.60
2022-08-03T09:53:59.255Z,28.68
2022-08-03T09:56:41.328Z,28.76
2022-08-03T09:59:09.147Z,28.81
2022-08-03T10:01:39.490Z,28.85
2022-08-03T10:04:07.144Z,28.93
2022-08-03T10:06:34.803Z,28.99
2022-08-03T10:09:10.319Z,29.06
2022-08-03T10:11:42.068Z,29.14
2022-08-03T10:14:18.597Z,29.21
2022-08-03T10:16:47.692Z,29.29
2022-08-03T10:19:15.755Z,29.35
2022-08-03T10:21:50.395Z,29.39
2022-08-03T10:24:21.163Z,29.45
2022-08-03T10:26:51.737Z,29.51
2022-08-03T10:29:25.445Z,29.58
2022-08-03T10:31:58.442Z,29.65
2022-08-03T10:34:28.189Z,29.71
2022-08-03T10:36:59.800Z,29.75
2022-08-03T10:39:30.567Z,29.77
2022-08-03T10:42:02.841Z,29.82
2022-08-03T10:44:34.560Z,29.86
2022-08-03T10:47:02.517Z,29.91
2022-08-03T10:49:34.365Z,29.93
2022-08-03T10:52:12.760Z,29.94
2022-08-03T10:55:10.688Z,29.94
2022-08-03T10:57:58.436Z,30.01
2022-08-03T11:00:28.509Z,30.09
2022-08-03T11:03:10.003Z,30.15
2022-08-03T11:05:40.423Z,30.22
2022-08-03T11:08:29.509Z,30.31
2022-08-03T11:10:59.424Z,30.36
2022-08-03T11:13:33.469Z,30.45
2022-08-03T11:16:21.935Z,30.51
2022-08-03T11:18:57.681Z,30.57
2022-08-03T11:21:59.437Z,30.62
2022-08-03T11:25:01.083Z,30.64
2022-08-03T11:27:31.170Z,30.69
2022-08-03T11:30:02.796Z,30.73
2022-08-03T11:32:52.705Z,30.83
2022-08-03T11:35:22.446Z,30.89
2022-08-03T11:38:10.345Z,30.93
2022-08-03T11:40:40.837Z,30.98
2022-08-03T11:43:09.724Z,31.02
2022-08-03T11:45:39.453Z,31.05
2022-08-03T11:48:17.669Z,31.08
2022-08-03T11:50:46.237Z,31.10
2022-08-03T11:53:19.111Z,31.14
2022-08-03T11:55:49.717Z,31.17
2022-08-03T11:59:17.313Z,31.19
2022-08-03T12:01:13.629Z,31.19
2022-08-03T12:03:41.318Z,31.20
2022-08-03T12:06:11.049Z,31.23
2022-08-03T12:08:38.771Z,31.26
2022-08-03T12:11:08.716Z,31.29
2022-08-03T12:14:35.719Z,31.29
2022-08-03T12:16:29.943Z,31.30
2022-08-03T12:18:58.876Z,31.31
2022-08-03T12:21:26.559Z,31.33
2022-08-03T12:24:00.271Z,31.34
2022-08-03T12:26:29.190Z,31.34
2022-08-03T12:28:57.257Z,31.33
2022-08-03T12:31:25.088Z,31.33
2022-08-03T12:33:59.065Z,31.35
2022-08-03T12:36:34.297Z,31.38
2022-08-03T12:39:04.478Z,31.37
2022-08-03T12:41:35.190Z,31.38
2022-08-03T12:44:04.348Z,31.38
2022-08-03T12:46:34.251Z,31.40
2022-08-03T12:49:06.901Z,31.43
2022-08-03T12:51:36.568Z,31.48
2022-08-03T12:54:05.376Z,31.49
2022-08-03T12:56:33.030Z,31.54
2022-08-03T12:59:00.638Z,31.56
2022-08-03T13:01:37.411Z,31.56
2022-08-03T13:04:06.607Z,31.57
2022-08-03T13:06:34.266Z,31.58
2022-08-03T13:09:06.379Z,31.56
2022-08-03T13:11:53.521Z,31.56
2022-08-03T15:10:57.593Z,31.58
2022-08-03T15:13:27.371Z,31.59
2022-08-03T15:16:00.878Z,31.58
2022-08-03T15:18:36.185Z,31.57
2022-08-03T15:21:16.581Z,31.56
2022-08-03T15:27:06.663Z,31.53
2022-08-03T15:30:06.739Z,31.52
2022-08-03T15:32:31.534Z,31.51
2022-08-03T15:35:05.631Z,31.50
2022-08-03T15:37:39.768Z,31.49
2022-08-03T16:43:19.210Z,31.39
2022-08-03T16:46:00.451Z,31.36
2022-08-03T16:51:40.393Z,31.33
2022-08-03T16:57:59.364Z,31.28
2022-08-03T17:00:34.265Z,31.27
2022-08-03T17:14:15.416Z,31.12
2022-08-03T17:16:52.440Z,31.10
2022-08-03T17:19:23.751Z,31.10
2022-08-03T17:21:58.065Z,31.10
2022-08-03T17:24:41.452Z,31.08
2022-08-03T17:33:20.171Z,31.02
2022-08-03T17:39:55.709Z,30.92
2022-08-03T17:42:45.322Z,30.89
2022-08-03T18:12:53.275Z,30.58
2022-08-03T18:39:34.931Z,30.22
2022-08-03T18:42:32.852Z,30.17
2022-08-03T18:45:14.713Z,30.13
2022-08-03T18:48:06.647Z,30.10
2022-08-03T18:50:49.591Z,30.08
2022-08-03T18:54:02.471Z,30.01
2022-08-03T18:56:29.143Z,29.96
2022-08-03T19:15:36.940Z,29.34
2022-08-03T19:18:27.635Z,29.17
2022-08-03T19:26:31.544Z,28.71
2022-08-03T19:29:01.070Z,28.58
2022-08-03T19:31:34.791Z,28.42
2022-08-03T19:34:04.879Z,28.27
2022-08-03T19:36:40.400Z,28.16
2022-08-03T19:39:10.061Z,28.04
2022-08-03T19:41:42.861Z,27.91
2022-08-03T19:44:20.316Z,27.77
2022-08-03T19:46:55.346Z,27.69
2022-08-03T19:50:04.869Z,27.59
2022-08-03T19:52:24.452Z,27.48
2022-08-03T19:55:02.072Z,27.39
2022-08-03T19:57:33.893Z,27.32
2022-08-03T20:00:03.423Z,27.24
2022-08-03T20:02:33.856Z,27.17
2022-08-03T20:05:02.705Z,27.06
2022-08-03T20:07:33.270Z,26.98
2022-08-03T20:10:02.735Z,26.89
2022-08-03T20:12:38.585Z,26.83
2022-08-03T20:15:09.224Z,26.76
2022-08-03T20:17:54.810Z,26.68
2022-08-03T20:20:30.026Z,26.61
2022-08-03T20:22:59.700Z,26.56
2022-08-03T20:25:38.125Z,26.48
2022-08-03T20:28:13.834Z,26.42
2022-08-03T20:30:47.241Z,26.37
2022-08-03T20:33:18.877Z,26.30
2022-08-03T20:35:48.969Z,26.25
2022-08-03T20:38:18.719Z,26.20
2022-08-03T20:40:48.060Z,26.15
2022-08-03T20:43:16.010Z,26.11
2022-08-03T20:45:58.225Z,26.05
2022-08-03T20:48:31.617Z,26.00
2022-08-03T20:50:59.456Z,25.94
2022-08-03T20:53:57.365Z,25.89
2022-08-03T20:56:16.717Z,25.81
2022-08-03T20:58:50.505Z,25.74
2022-08-03T21:01:27.966Z,25.68
2022-08-03T21:04:07.174Z,25.62
2022-08-03T21:06:45.687Z,25.56
2022-08-03T21:09:39.802Z,25.49
2022-08-03T21:12:13.008Z,25.45
2022-08-03T21:14:52.406Z,25.38
2022-08-03T21:17:39.911Z,25.30
2022-08-03T21:20:12.457Z,25.27
2022-08-03T21:22:45.004Z,25.22
2022-08-03T21:25:15.988Z,25.20
2022-08-03T21:27:44.490Z,25.15
2022-08-03T21:30:13.250Z,25.11
2022-08-03T21:32:43.722Z,25.07
2022-08-03T21:35:14.068Z,25.03
2022-08-03T21:37:43.257Z,24.97
2022-08-03T21:40:13.618Z,24.93
2022-08-03T21:42:42.893Z,24.89
2022-08-03T21:45:17.118Z,24.84
2022-08-03T21:47:46.462Z,24.81
2022-08-03T21:50:15.318Z,24.79
2022-08-03T21:52:44.683Z,24.73
2022-08-03T21:55:18.549Z,24.70
2022-08-03T21:57:52.922Z,24.67
2022-08-03T22:00:22.929Z,24.65
2022-08-03T22:02:54.814Z,24.63
2022-08-03T22:05:42.542Z,24.60
2022-08-03T22:08:13.508Z,24.57
2022-08-03T22:10:41.615Z,24.52
2022-08-03T22:13:09.257Z,24.48
2022-08-03T22:15:36.793Z,24.45
2022-08-03T22:18:05.190Z,24.41
2022-08-03T22:20:34.376Z,24.40
2022-08-03T22:23:04.528Z,24.39
2022-08-03T22:25:34.756Z,24.39
2022-08-03T22:28:05.174Z,24.39
2022-08-03T22:30:33.061Z,24.38
2022-08-03T22:33:02.259Z,24.35
2022-08-03T22:35:32.642Z,24.35
2022-08-03T22:38:17.195Z,24.33
2022-08-03T22:40:45.827Z,24.32
2022-08-03T22:43:13.495Z,24.33
2022-08-03T22:46:08.970Z,24.30
2022-08-03T22:48:34.250Z,24.32
2022-08-03T22:51:03.873Z,24.31
2022-08-03T22:53:33.233Z,24.31
2022-08-03T22:56:00.741Z,24.32
2022-08-03T22:58:28.279Z,24.32
2022-08-03T23:00:58.582Z,24.30
2022-08-03T23:03:59.632Z,24.27
2022-08-03T23:06:20.424Z,24.25
2022-08-03T23:08:51.292Z,24.26
2022-08-03T23:11:19.740Z,24.30
2022-08-03T23:13:53.102Z,24.34
2022-08-03T23:16:28.792Z,24.37
2022-08-03T23:18:58.924Z,24.40
2022-08-03T23:21:53.594Z,24.42
2022-08-03T23:24:29.469Z,24.44
2022-08-03T23:26:58.522Z,24.47
2022-08-03T23:29:27.258Z,24.51
2022-08-03T23:31:55.842Z,24.52
2022-08-03T23:34:42.051Z,24.55
2022-08-03T23:37:10.752Z,24.60
2022-08-03T23:39:40.986Z,24.61
2022-08-03T23:42:10.296Z,24.64
2022-08-03T23:44:39.750Z,24.67
2022-08-03T23:47:07.345Z,24.72
2022-08-03T23:49:34.886Z,24.73
2022-08-03T23:52:07.252Z,24.73
2022-08-03T23:54:45.407Z,24.71
2022-08-03T23:57:19.799Z,24.72
